Time;durP1;ratioP1;P1;durP2;ratioP2;P2;SDS_P1;SDS_P2;PMS_P1;PMS_P2;Temp;Humidity;BMP_temperature;BMP_pressure;BME280_temperature;BME280_humidity;BME280_pressure;Samples;Min_cycle;Max_cycle;Signal;HPM_P1;HPM_P2
2021/05/03 00:01:12;;;;;;;16.45;3.88;;;;;;;17.79;39.13;93551.28;5010059;28;20030;-82
2021/05/03 00:03:37;;;;;;;18.00;3.75;;;;;;;17.77;38.55;93563.44;5031033;28;20060;-82
2021/05/03 00:06:03;;;;;;;11.73;2.55;;;;;;;17.53;38.11;93541.00;5012952;28;20580;-83
2021/05/03 00:08:29;;;;;;;16.42;3.63;;;;;;;17.66;38.04;93555.13;5008651;28;20488;-83
2021/05/03 00:10:54;;;;;;;14.80;2.95;;;;;;;17.62;37.87;93546.22;5014989;28;20106;-82
2021/05/03 00:13:21;;;;;;;11.30;2.42;;;;;;;17.49;38.84;93548.13;5026409;28;20013;-83
2021/05/03 00:15:46;;;;;;;17.38;2.53;;;;;;;17.41;39.54;93545.56;5026049;28;20056;-82
2021/05/03 00:18:12;;;;;;;23.90;6.75;;;;;;;17.31;38.51;93534.22;5016456;28;20791;-81
2021/05/03 00:20:39;;;;;;;16.08;4.07;;;;;;;17.29;37.01;93536.47;5022349;28;20049;-82
2021/05/03 00:23:04;;;;;;;12.35;3.60;;;;;;;17.34;35.34;93543.47;5018204;28;20045;-82
2021/05/03 00:25:30;;;;;;;12.65;3.55;;;;;;;17.38;34.56;93538.25;5013973;28;20564;-83
2021/05/03 00:27:55;;;;;;;23.33;6.47;;;;;;;17.49;33.82;93540.13;5028753;28;20024;-82
2021/05/03 00:30:21;;;;;;;15.40;3.75;;;;;;;17.55;33.57;93538.75;5030789;28;20170;-82
2021/05/03 00:32:47;;;;;;;9.45;2.13;;;;;;;17.56;33.77;93556.34;5026196;28;20048;-82
2021/05/03 00:35:15;;;;;;;18.05;2.33;;;;;;;17.43;36.83;93557.47;5027967;28;20615;-82
2021/05/03 00:37:41;;;;;;;13.73;2.83;;;;;;;17.18;38.33;93548.72;5021278;28;20041;-81
2021/05/03 00:40:08;;;;;;;10.73;2.50;;;;;;;17.37;38.61;93569.50;5012606;28;20028;-82
2021/05/03 00:42:34;;;;;;;9.05;2.58;;;;;;;17.21;37.62;93569.41;5029197;28;20029;-81
2021/05/03 00:45:12;;;;;;;7.88;1.85;;;;;;;17.11;36.40;93575.19;5015184;28;20049;-82
2021/05/03 00:47:38;;;;;;;4.22;1.13;;;;;;;17.13;35.54;93580.97;5008746;28;20125;-82
2021/05/03 00:50:05;;;;;;;13.32;2.05;;;;;;;17.11;35.90;93579.75;5007251;28;20152;-82
2021/05/03 00:52:31;;;;;;;9.77;2.03;;;;;;;17.06;34.77;93580.75;5011173;28;20045;-82
2021/05/03 00:54:56;;;;;;;6.18;1.27;;;;;;;17.00;34.49;93581.31;5030603;28;20025;-82
2021/05/03 00:57:21;;;;;;;11.95;2.38;;;;;;;16.98;34.41;93578.19;5008284;28;20581;-83
2021/05/03 00:59:47;;;;;;;4.50;1.25;;;;;;;17.38;33.30;93587.09;5006338;28;20032;-82
2021/05/03 01:02:13;;;;;;;4.82;1.40;;;;;;;17.40;33.36;93576.84;5010901;28;20037;-84
2021/05/03 01:04:38;;;;;;;6.45;1.05;;;;;;;17.54;32.96;93589.88;5013251;28;20030;-83
2021/05/03 01:07:04;;;;;;;3.85;1.15;;;;;;;17.57;32.73;93581.94;5009600;28;20025;-83
2021/05/03 01:09:29;;;;;;;5.57;1.55;;;;;;;17.56;33.45;93576.94;5027603;28;20420;-83
2021/05/03 01:11:54;;;;;;;3.75;1.60;;;;;;;17.74;32.96;93572.91;5012508;28;20104;-83
2021/05/03 01:14:20;;;;;;;8.63;1.65;;;;;;;17.81;32.84;93572.34;5012645;28;20049;-84
2021/05/03 01:16:45;;;;;;;10.23;1.92;;;;;;;17.87;32.55;93565.66;5008580;28;20454;-82
2021/05/03 01:19:11;;;;;;;4.80;1.10;;;;;;;17.87;32.81;93568.31;5010629;28;20692;-83
2021/05/03 01:21:36;;;;;;;7.97;1.73;;;;;;;17.81;33.01;93561.66;5013010;28;20993;-83
2021/05/03 01:24:05;;;;;;;5.85;1.38;;;;;;;17.83;33.14;93564.78;5010783;28;20156;-84
2021/05/03 01:26:31;;;;;;;5.60;1.48;;;;;;;17.89;32.82;93579.44;5019298;28;20038;-83
2021/05/03 01:28:56;;;;;;;4.10;1.10;;;;;;;17.68;33.01;93534.97;5023036;28;20056;-82
2021/05/03 01:31:22;;;;;;;5.68;1.05;;;;;;;17.78;33.11;93551.66;5009433;28;20281;-84
2021/05/03 01:33:47;;;;;;;6.35;0.98;;;;;;;17.98;32.79;93572.09;5007128;28;20052;-82
2021/05/03 01:36:12;;;;;;;4.15;1.48;;;;;;;18.07;32.77;93583.41;5026892;28;20041;-84
2021/05/03 01:38:38;;;;;;;6.28;1.52;;;;;;;18.04;32.72;93565.34;5018672;28;20715;-84
2021/05/03 01:41:03;;;;;;;5.63;1.30;;;;;;;17.82;33.05;93536.50;5012037;28;20045;-83
2021/05/03 01:43:30;;;;;;;9.18;1.50;;;;;;;18.01;32.98;93560.69;5011148;28;20037;-84
2021/05/03 01:45:58;;;;;;;6.90;1.60;;;;;;;18.02;33.31;93579.09;5012594;28;20116;-84
2021/05/03 01:48:26;;;;;;;6.95;1.27;;;;;;;17.93;33.55;93580.34;5027755;28;20036;-83
2021/05/03 01:50:53;;;;;;;3.85;1.10;;;;;;;17.88;34.15;93583.25;5018604;28;20108;-85
2021/05/03 01:53:20;;;;;;;6.18;2.03;;;;;;;17.78;34.21;93589.06;5008306;28;20097;-83
2021/05/03 01:55:51;;;;;;;5.28;1.55;;;;;;;17.61;34.65;93590.88;5009043;28;20056;-83
2021/05/03 01:58:17;;;;;;;5.55;1.73;;;;;;;17.56;34.96;93611.66;5006936;28;20043;-83
2021/05/03 02:00:43;;;;;;;11.52;1.63;;;;;;;17.36;35.24;93593.88;5018396;28;20021;-83
2021/05/03 02:03:19;;;;;;;5.22;1.70;;;;;;;17.36;35.62;93624.03;5027894;28;20045;-83
2021/05/03 02:05:44;;;;;;;8.63;1.70;;;;;;;17.30;35.13;93623.47;5024774;28;20045;-82
2021/05/03 02:08:10;;;;;;;10.25;1.77;;;;;;;17.13;36.26;93612.25;5026380;28;20045;-83
2021/05/03 02:10:37;;;;;;;8.77;1.63;;;;;;;17.28;37.45;93630.28;5020356;28;20044;-83
2021/05/03 02:13:05;;;;;;;9.77;1.45;;;;;;;17.18;37.52;93628.03;5046082;28;20074;-83
2021/05/03 02:15:31;;;;;;;6.97;1.60;;;;;;;17.04;38.36;93623.03;5013669;28;20083;-83
2021/05/03 02:17:57;;;;;;;8.40;2.03;;;;;;;16.93;38.13;93629.91;5027325;28;21459;-82
2021/05/03 02:20:22;;;;;;;5.57;1.30;;;;;;;16.75;39.36;93605.31;5021729;28;20033;-83
2021/05/03 02:22:48;;;;;;;9.57;1.63;;;;;;;16.76;39.82;93630.88;5011987;28;20069;-83
2021/05/03 02:25:14;;;;;;;7.85;1.63;;;;;;;16.58;40.37;93618.00;5017302;28;20068;-82
2021/05/03 02:27:40;;;;;;;5.40;1.75;;;;;;;16.42;40.55;93617.84;5035572;28;20021;-82
2021/05/03 02:30:07;;;;;;;3.78;1.73;;;;;;;16.25;41.12;93610.03;5018548;28;20471;-82
2021/05/03 02:32:36;;;;;;;13.23;2.15;;;;;;;16.21;41.41;93630.47;5013280;28;20042;-81
2021/05/03 02:35:08;;;;;;;4.97;1.52;;;;;;;16.04;41.89;93626.03;5011068;28;20042;-82
2021/05/03 02:37:33;;;;;;;3.53;1.92;;;;;;;15.86;42.01;93617.41;5014395;28;20060;-82
2021/05/03 02:39:59;;;;;;;7.25;1.77;;;;;;;15.80;40.19;93642.69;5035991;28;20033;-82
2021/05/03 02:42:24;;;;;;;6.55;1.70;;;;;;;15.75;42.44;93636.75;5009058;28;20041;-82
2021/05/03 02:44:50;;;;;;;4.78;1.58;;;;;;;15.55;42.43;93622.31;5026077;28;20045;-82
2021/05/03 02:47:16;;;;;;;3.80;1.60;;;;;;;15.69;42.32;93657.47;5025783;28;20180;-83
2021/05/03 02:49:41;;;;;;;14.52;1.85;;;;;;;15.57;41.98;93666.19;5021217;28;20068;-82
2021/05/03 02:52:07;;;;;;;4.22;1.38;;;;;;;15.70;41.70;93666.25;5031645;28;20117;-83
2021/05/03 02:54:32;;;;;;;10.98;2.00;;;;;;;15.72;42.58;93677.38;5019484;28;20037;-82
2021/05/03 02:56:58;;;;;;;8.68;2.85;;;;;;;15.66;42.65;93671.47;5027303;28;20040;-83
2021/05/03 02:59:23;;;;;;;11.82;2.10;;;;;;;15.52;43.10;93668.25;5029517;28;20033;-83
2021/05/03 03:01:49;;;;;;;5.88;2.00;;;;;;;15.50;43.43;93679.19;5023241;28;20049;-83
2021/05/03 03:04:14;;;;;;;6.10;1.60;;;;;;;15.47;44.00;93697.69;5009809;28;20114;-82
2021/05/03 03:06:40;;;;;;;6.68;1.42;;;;;;;15.39;43.71;93693.19;5017056;28;20022;-82
2021/05/03 03:09:06;;;;;;;6.57;2.42;;;;;;;15.36;43.68;93701.81;5011596;28;20065;-83
2021/05/03 03:11:32;;;;;;;10.55;1.92;;;;;;;15.28;44.14;93691.97;5009967;28;20042;-82
2021/05/03 03:13:58;;;;;;;8.85;2.47;;;;;;;15.08;44.83;93659.66;5013875;28;20068;-82
2021/05/03 03:16:26;;;;;;;8.30;1.75;;;;;;;15.12;44.14;93689.84;5015251;28;20384;-82
2021/05/03 03:18:56;;;;;;;4.05;1.63;;;;;;;15.03;45.00;93702.41;5015753;28;20037;-82
2021/05/03 03:21:22;;;;;;;7.40;1.20;;;;;;;14.93;44.87;93693.97;5023789;28;20048;-83
2021/05/03 03:23:47;;;;;;;6.90;2.03;;;;;;;14.87;44.89;93679.28;5023649;28;20037;-82
2021/05/03 03:26:13;;;;;;;6.78;1.80;;;;;;;15.02;44.17;93703.50;5016487;28;20475;-82
2021/05/03 03:28:39;;;;;;;11.57;1.77;;;;;;;15.10;43.72;93710.66;5024995;28;20045;-82
2021/05/03 03:31:04;;;;;;;14.00;2.47;;;;;;;15.28;43.64;93721.28;5012746;28;20113;-82
2021/05/03 03:33:30;;;;;;;10.13;1.95;;;;;;;15.39;44.36;93725.16;5014110;28;20092;-82
2021/05/03 03:35:57;;;;;;;7.50;1.90;;;;;;;15.35;43.83;93721.53;5010954;28;20123;-82
2021/05/03 03:38:22;;;;;;;6.10;1.27;;;;;;;15.41;43.66;93730.94;5007485;28;20297;-82
2021/05/03 03:40:47;;;;;;;4.95;1.30;;;;;;;15.45;44.68;93729.19;5014067;28;20506;-82
2021/05/03 03:43:13;;;;;;;13.00;1.55;;;;;;;15.46;43.48;93728.09;5027230;28;20487;-82
2021/05/03 03:45:38;;;;;;;3.28;1.20;;;;;;;15.59;44.40;93738.53;5013963;28;20137;-82
2021/05/03 03:48:05;;;;;;;8.43;1.80;;;;;;;15.57;43.78;93730.09;5013513;28;20045;-83
2021/05/03 03:50:31;;;;;;;7.45;1.75;;;;;;;15.79;43.43;93731.72;5016497;28;20518;-82
2021/05/03 03:52:57;;;;;;;12.68;3.53;;;;;;;15.95;44.61;93739.94;5013445;28;20413;-83
2021/05/03 03:55:22;;;;;;;10.70;4.05;;;;;;;15.94;44.79;93736.47;5008035;28;20025;-83
2021/05/03 03:57:48;;;;;;;12.80;3.00;;;;;;;16.10;44.67;93746.59;5010902;28;20447;-82
2021/05/03 04:00:14;;;;;;;9.38;2.70;;;;;;;16.27;43.50;93757.16;5012871;28;20821;-83
2021/05/03 04:02:40;;;;;;;9.18;2.40;;;;;;;16.33;44.09;93745.16;5010637;28;20059;-82
2021/05/03 04:23:56;;;;;;;18.77;4.38;;;;;;;17.74;40.54;93800.09;5007101;28;20056;-83
2021/05/03 04:26:14;;;;;;;9.07;3.25;;;;;;;18.24;39.68;93791.75;5015330;28;20045;-83
2021/05/03 04:28:40;;;;;;;6.40;1.92;;;;;;;18.68;37.83;93771.28;5032633;28;20069;-82
2021/05/03 04:31:05;;;;;;;11.77;3.10;;;;;;;19.50;36.59;93790.38;5028391;28;20788;-83
2021/05/03 04:33:32;;;;;;;15.27;4.82;;;;;;;20.26;35.44;93803.34;5009758;28;20633;-83
2021/05/03 04:35:59;;;;;;;18.55;6.32;;;;;;;20.83;34.38;93785.03;5011493;28;20098;-84
2021/05/03 04:38:25;;;;;;;9.88;3.05;;;;;;;21.30;33.74;93811.75;5012374;28;20475;-84
2021/05/03 04:40:51;;;;;;;10.23;2.80;;;;;;;21.11;32.91;93799.81;5006573;28;20053;-84
2021/05/03 04:43:17;;;;;;;13.55;3.80;;;;;;;21.08;33.72;93805.13;5009708;28;20036;-83
2021/05/03 04:45:42;;;;;;;12.40;5.03;;;;;;;20.92;34.20;93815.16;5025543;28;20117;-84
2021/05/03 04:48:08;;;;;;;13.07;4.90;;;;;;;20.64;34.68;93810.75;5009267;28;20488;-83
2021/05/03 04:50:34;;;;;;;7.97;2.38;;;;;;;20.73;34.06;93832.03;5008818;28;20070;-83
2021/05/03 04:52:59;;;;;;;22.40;4.45;;;;;;;20.80;34.26;93829.50;5005871;28;20041;-84
2021/05/03 04:55:25;;;;;;;10.25;2.67;;;;;;;20.76;34.23;93828.66;5007709;28;20034;-84
2021/05/03 04:57:51;;;;;;;9.32;3.85;;;;;;;20.87;34.33;93818.13;5013083;28;20038;-83
2021/05/03 05:00:17;;;;;;;9.93;3.05;;;;;;;20.82;34.27;93827.22;5015004;28;20088;-85
2021/05/03 05:02:43;;;;;;;8.85;2.15;;;;;;;20.86;34.45;93828.13;5022758;28;20507;-83
2021/05/03 05:05:11;;;;;;;8.23;1.77;;;;;;;21.10;34.39;93837.81;5029844;28;20033;-83
2021/05/03 05:07:37;;;;;;;9.85;2.58;;;;;;;21.44;33.64;93841.59;5018877;28;20034;-83
2021/05/03 05:10:03;;;;;;;17.02;3.50;;;;;;;22.07;32.55;93836.59;5029128;28;20039;-84
2021/05/03 05:12:29;;;;;;;10.70;2.08;;;;;;;22.88;31.20;93845.94;5006959;28;20735;-85
2021/05/03 05:14:54;;;;;;;10.05;1.83;;;;;;;23.58;30.62;93826.41;5007464;28;20038;-86
2021/05/03 05:17:20;;;;;;;10.50;2.50;;;;;;;24.42;30.20;93824.91;5009119;28;20045;-87
2021/05/03 05:19:47;;;;;;;8.27;2.00;;;;;;;25.58;28.15;93829.44;5008399;28;20065;-84
2021/05/03 05:22:12;;;;;;;11.45;2.10;;;;;;;26.18;28.11;93841.16;5008740;28;20718;-83
2021/05/03 05:24:38;;;;;;;7.88;1.65;;;;;;;26.52;27.08;93832.69;5006761;28;20029;-83
2021/05/03 05:27:05;;;;;;;9.15;2.13;;;;;;;27.02;27.03;93842.34;5007848;28;20053;-86
2021/05/03 05:29:30;;;;;;;8.30;2.30;;;;;;;26.95;28.12;93855.13;5007032;28;20405;-88
2021/05/03 05:31:56;;;;;;;4.13;1.40;;;;;;;26.98;28.38;93849.69;5030756;28;20048;-86
2021/05/03 05:34:21;;;;;;;6.80;1.90;;;;;;;26.60;28.97;93856.69;5024982;28;20021;-85
2021/05/03 05:36:47;;;;;;;8.68;2.15;;;;;;;26.34;30.06;93854.34;5015020;28;20120;-87
2021/05/03 05:39:13;;;;;;;11.57;2.55;;;;;;;26.20;30.37;93860.50;5020827;28;20041;-85
2021/05/03 05:41:40;;;;;;;4.68;1.90;;;;;;;25.93;30.60;93855.81;5025161;28;20045;-86
2021/05/03 05:44:07;;;;;;;9.95;2.40;;;;;;;26.37;30.76;93869.06;5025576;28;20084;-85
2021/05/03 05:46:34;;;;;;;7.30;1.50;;;;;;;27.35;30.47;93870.94;5012461;28;20103;-85
2021/05/03 05:48:59;;;;;;;7.18;1.90;;;;;;;28.57;28.08;93866.44;5012482;28;20045;-86
2021/05/03 05:51:25;;;;;;;6.40;1.77;;;;;;;29.40;26.96;93868.03;5010215;28;20117;-87
2021/05/03 05:53:51;;;;;;;7.20;2.13;;;;;;;29.46;27.02;93864.47;5008904;28;20531;-86
2021/05/03 05:56:20;;;;;;;6.32;1.95;;;;;;;29.12;27.73;93867.13;5011383;28;20049;-85
2021/05/03 05:58:48;;;;;;;5.82;2.00;;;;;;;28.83;28.57;93857.69;5011077;28;20075;-85
2021/05/03 06:01:14;;;;;;;7.85;1.50;;;;;;;29.18;28.51;93872.88;5009194;28;20979;-85
2021/05/03 06:03:41;;;;;;;7.95;2.00;;;;;;;28.91;27.83;93844.78;5012851;28;20403;-85
2021/05/03 06:06:06;;;;;;;7.78;1.77;;;;;;;27.83;29.22;93849.41;5011252;28;20117;-82
2021/05/03 06:08:33;;;;;;;7.30;2.28;;;;;;;27.07;30.88;93871.75;5011247;28;20038;-85
2021/05/03 06:10:59;;;;;;;6.85;1.98;;;;;;;25.92;32.51;93892.94;5008411;28;20081;-82
2021/05/03 06:13:24;;;;;;;3.63;2.17;;;;;;;25.25;33.69;93876.41;5010783;28;20064;-86
2021/05/03 06:15:49;;;;;;;10.13;2.22;;;;;;;24.84;34.21;93851.44;5031678;28;20029;-85
2021/05/03 06:18:15;;;;;;;11.75;2.72;;;;;;;25.42;34.33;93881.91;5032094;28;20554;-85
2021/05/03 06:20:40;;;;;;;7.53;2.40;;;;;;;25.42;33.93;93887.31;5019193;28;20562;-85
2021/05/03 06:23:08;;;;;;;5.28;2.70;;;;;;;25.33;34.45;93881.47;5016305;28;20049;-87
2021/05/03 06:25:34;;;;;;;8.07;3.40;;;;;;;25.72;33.62;93876.25;5030751;28;20547;-86
2021/05/03 06:28:00;;;;;;;8.60;2.38;;;;;;;26.17;33.32;93896.50;5017595;28;20093;-85
2021/05/03 06:30:26;;;;;;;5.93;2.60;;;;;;;26.93;32.47;93879.13;5017627;28;20041;-86
2021/05/03 06:32:53;;;;;;;6.10;2.22;;;;;;;27.88;31.16;93884.31;5023442;28;20043;-83
2021/05/03 06:35:19;;;;;;;8.57;2.58;;;;;;;28.60;30.21;93879.22;5023191;28;20042;-86
2021/05/03 06:37:45;;;;;;;5.50;2.92;;;;;;;29.64;28.23;93865.03;5017139;28;20119;-86
2021/05/03 06:40:11;;;;;;;7.10;2.10;;;;;;;30.17;27.01;93862.81;5028276;28;20111;-84
2021/05/03 06:42:37;;;;;;;6.03;1.80;;;;;;;31.29;26.90;93876.63;5014538;28;20980;-83
2021/05/03 06:45:04;;;;;;;6.60;2.10;;;;;;;31.68;25.83;93875.91;5025358;28;20678;-86
2021/05/03 06:47:30;;;;;;;8.60;2.05;;;;;;;31.72;25.53;93853.97;5015168;28;20132;-85
2021/05/03 06:49:56;;;;;;;6.40;1.52;;;;;;;31.85;25.83;93868.53;5003899;28;20049;-85
2021/05/03 06:52:22;;;;;;;6.22;1.70;;;;;;;31.99;26.15;93872.94;5005243;28;20109;-85
2021/05/03 06:54:48;;;;;;;4.68;1.92;;;;;;;32.34;25.00;93882.38;5007261;28;20039;-86
2021/05/03 06:57:14;;;;;;;5.85;1.70;;;;;;;31.75;25.59;93864.06;5021515;28;20126;-83
2021/05/03 06:59:39;;;;;;;4.60;1.70;;;;;;;31.57;25.94;93878.06;5016026;28;20041;-86
2021/05/03 07:02:05;;;;;;;3.95;1.40;;;;;;;31.81;25.68;93865.13;5012436;28;20056;-83
2021/05/03 07:04:31;;;;;;;8.68;2.13;;;;;;;31.44;25.64;93859.97;5008425;28;20041;-86
2021/05/03 07:06:56;;;;;;;4.18;1.85;;;;;;;31.02;26.49;93865.03;5012008;28;20028;-83
2021/05/03 07:09:22;;;;;;;3.78;1.92;;;;;;;30.85;26.39;93872.28;5027247;28;20037;-84
2021/05/03 07:11:50;;;;;;;3.97;1.60;;;;;;;31.71;26.18;93879.75;5027880;28;20038;-86
2021/05/03 07:14:16;;;;;;;3.03;1.40;;;;;;;31.82;26.09;93870.13;5026992;28;20036;-87
2021/05/03 07:16:41;;;;;;;5.70;1.38;;;;;;;32.16;24.92;93856.16;5020794;28;20053;-88
2021/05/03 07:19:07;;;;;;;4.90;1.73;;;;;;;33.38;24.39;93849.34;5007877;28;20030;-86
2021/05/03 07:21:38;;;;;;;7.70;1.83;;;;;;;33.83;23.65;93874.72;5007002;28;20102;-83
2021/05/03 07:24:04;;;;;;;4.72;1.50;;;;;;;34.01;22.33;93867.97;5022151;28;20783;-83
2021/05/03 07:26:30;;;;;;;5.97;1.58;;;;;;;34.34;21.82;93875.59;5021107;28;21771;-86
2021/05/03 07:28:56;;;;;;;8.98;1.77;;;;;;;34.39;22.30;93871.56;5021323;28;20068;-85
2021/05/03 07:31:21;;;;;;;4.10;1.20;;;;;;;34.94;22.38;93869.44;5009438;28;20112;-84
2021/05/03 07:33:47;;;;;;;7.25;1.75;;;;;;;35.48;21.41;93856.22;5031479;28;20488;-84
2021/05/03 07:36:12;;;;;;;6.47;1.75;;;;;;;35.72;21.08;93853.06;5010433;28;20046;-84
2021/05/03 07:38:38;;;;;;;3.72;1.50;;;;;;;35.76;20.92;93859.22;5038450;28;20534;-84
2021/05/03 07:41:04;;;;;;;4.80;1.73;;;;;;;36.09;20.69;93868.56;5012293;28;20037;-85
2021/05/03 07:43:29;;;;;;;7.88;1.90;;;;;;;35.88;20.08;93867.38;5024136;28;20053;-84
2021/05/03 07:45:55;;;;;;;5.13;1.92;;;;;;;36.20;20.04;93837.94;5015259;28;20029;-86
2021/05/03 07:48:21;;;;;;;10.45;1.85;;;;;;;36.19;19.58;93864.69;5010673;28;20474;-86
2021/05/03 07:50:46;;;;;;;5.60;1.70;;;;;;;36.34;19.95;93849.16;5011354;28;20072;-87
2021/05/03 07:53:11;;;;;;;6.78;1.55;;;;;;;36.66;18.83;93863.69;5019200;28;20064;-85
2021/05/03 07:55:37;;;;;;;3.97;1.40;;;;;;;36.03;19.81;93867.63;5012151;28;20099;-85
2021/05/03 07:58:03;;;;;;;9.13;2.17;;;;;;;36.28;19.41;93848.22;5012237;28;20366;-85
2021/05/03 08:00:29;;;;;;;7.10;1.85;;;;;;;36.58;19.38;93876.19;5010989;28;20500;-88
2021/05/03 08:02:56;;;;;;;5.15;1.30;;;;;;;36.65;19.88;93873.19;5023798;28;20041;-88
2021/05/03 08:05:22;;;;;;;7.35;1.67;;;;;;;37.18;18.16;93882.06;5028664;28;20514;-86
2021/05/03 08:07:48;;;;;;;2.58;1.35;;;;;;;37.36;18.28;93870.28;5030291;28;20049;-87
2021/05/03 08:10:13;;;;;;;3.70;1.58;;;;;;;38.26;17.77;93857.69;5029153;28;20032;-87
2021/05/03 08:12:39;;;;;;;5.88;1.98;;;;;;;38.53;17.49;93874.16;5027625;28;20066;-89
2021/05/03 08:15:13;;;;;;;5.15;1.50;;;;;;;38.43;17.04;93872.66;5009135;28;20041;-87
2021/05/03 08:17:42;;;;;;;5.75;1.88;;;;;;;37.96;17.18;93871.22;5012258;28;20050;-85
2021/05/03 08:20:08;;;;;;;7.75;3.00;;;;;;;36.39;18.07;93889.88;5005677;28;20128;-86
2021/05/03 08:22:34;;;;;;;5.85;1.60;;;;;;;36.46;18.18;93881.31;5010548;28;20049;-87
2021/05/03 08:25:02;;;;;;;7.32;1.90;;;;;;;37.09;18.37;93891.09;5009751;28;20080;-87
2021/05/03 08:27:28;;;;;;;4.97;2.17;;;;;;;37.77;17.38;93897.28;5028384;28;20041;-85
2021/05/03 08:29:53;;;;;;;4.22;1.23;;;;;;;37.98;17.23;93890.81;5013481;28;20048;-87
2021/05/03 08:32:19;;;;;;;4.30;1.10;;;;;;;38.21;16.09;93885.91;5004293;28;20171;-87
2021/05/03 08:34:47;;;;;;;4.72;1.70;;;;;;;38.67;15.54;93862.44;5004204;28;20584;-87
2021/05/03 08:37:31;;;;;;;3.17;1.30;;;;;;;39.19;16.04;93871.41;4998901;28;20507;-86
2021/05/03 08:39:56;;;;;;;;;;;;;;;38.59;15.88;93913.75;5020527;28;20059;-90
2021/05/03 08:42:22;;;;;;;3.50;1.53;;;;;;;38.84;15.50;93873.88;5008671;28;19926;-86
2021/05/03 08:44:53;;;;;;;5.03;2.00;;;;;;;39.97;15.20;93906.22;5008832;28;22283;-89
2021/05/03 08:47:18;;;;;;;2.92;1.85;;;;;;;38.56;15.15;93881.53;5038659;28;20028;-85
2021/05/03 08:50:21;;;;;;;6.95;2.15;;;;;;;38.92;16.34;93892.44;5020490;28;20045;-85
2021/05/03 08:52:46;;;;;;;6.07;1.90;;;;;;;38.08;16.94;93889.59;5010903;28;20537;-88
2021/05/03 08:55:12;;;;;;;4.30;1.90;;;;;;;36.79;17.78;93883.63;5015773;28;20056;-86
2021/05/03 08:57:39;;;;;;;6.82;2.05;;;;;;;37.15;18.17;93908.53;5027678;28;20021;-86
2021/05/03 09:00:11;;;;;;;6.10;2.05;;;;;;;37.73;17.24;93907.69;5011594;28;20030;-87
2021/05/03 09:02:38;;;;;;;5.78;2.00;;;;;;;38.40;16.84;93892.91;5020630;28;20051;-85
2021/05/03 09:05:03;;;;;;;5.25;2.60;;;;;;;38.50;17.06;93886.94;5027508;28;20044;-86
2021/05/03 09:07:29;;;;;;;4.38;1.75;;;;;;;38.82;16.04;93899.22;5024765;28;20040;-83
2021/05/03 09:09:54;;;;;;;5.55;1.80;;;;;;;37.40;16.87;93887.44;5012861;28;20508;-86
2021/05/03 09:12:24;;;;;;;3.58;1.92;;;;;;;36.86;18.12;93883.31;5001786;28;20120;-86
2021/05/03 09:15:00;;;;;;;10.15;4.63;;;;;;;36.33;18.14;93869.66;5005666;28;20045;-85
2021/05/03 09:17:39;;;;;;;14.10;2.25;;;;;;;37.34;18.06;93879.00;5014394;28;20115;-87
2021/05/03 09:20:19;;;;;;;4.20;1.98;;;;;;;36.81;18.26;93853.63;5010990;28;20468;-86
2021/05/03 09:22:52;;;;;;;3.45;1.80;;;;;;;37.07;18.72;93874.25;5029295;28;20764;-87
2021/05/03 09:25:35;;;;;;;3.17;2.05;;;;;;;36.17;17.82;93860.84;5013725;28;20112;-88
2021/05/03 09:28:20;;;;;;;7.83;2.40;;;;;;;36.15;19.36;93877.81;5015735;28;20044;-87
2021/05/03 09:30:48;;;;;;;6.97;2.47;;;;;;;35.52;19.04;93878.88;5007345;28;20323;-86
